createdAt,value
2018-11-28T00:00:45.764Z,21.40
2018-11-28T00:01:45.838Z,21.20
2018-11-28T00:02:45.767Z,21.00
2018-11-28T00:03:45.772Z,21.30
2018-11-28T00:04:45.791Z,22.30
2018-11-28T00:05:45.759Z,23.30
2018-11-28T00:06:45.807Z,22.90
2018-11-28T00:07:45.757Z,21.60
2018-11-28T00:08:45.800Z,20.60
2018-11-28T00:10:45.757Z,21.60
2018-11-28T00:11:45.754Z,20.80
2018-11-28T00:12:45.781Z,22.00
2018-11-28T00:13:45.761Z,21.50
2018-11-28T00:14:45.800Z,22.00
2018-11-28T00:15:45.769Z,23.00
2018-11-28T00:16:45.794Z,21.80
2018-11-28T00:17:45.775Z,22.80
2018-11-28T00:18:45.868Z,22.70
2018-11-28T00:19:45.780Z,23.60
2018-11-28T00:20:45.843Z,21.90
2018-11-28T00:21:45.764Z,22.80
2018-11-28T00:22:45.921Z,21.70
2018-11-28T00:23:45.768Z,21.10
2018-11-28T00:24:46.816Z,23.00
2018-11-28T00:25:45.756Z,22.30
2018-11-28T00:26:45.851Z,23.30
2018-11-28T00:27:45.758Z,22.00
2018-11-28T00:28:45.934Z,21.80
2018-11-28T00:29:45.777Z,23.90
2018-11-28T00:31:45.772Z,22.60
2018-11-28T00:32:45.890Z,23.30
2018-11-28T00:34:46.870Z,22.90
2018-11-28T00:35:45.762Z,23.60
2018-11-28T00:37:45.763Z,24.80
2018-11-28T00:38:46.084Z,26.10
2018-11-28T00:39:45.748Z,24.00
2018-11-28T00:40:46.105Z,24.30
2018-11-28T00:41:45.753Z,24.50
2018-11-28T00:42:46.187Z,26.00
2018-11-28T00:44:45.790Z,24.00
2018-11-28T00:45:45.783Z,26.80
2018-11-28T00:46:46.046Z,25.70
2018-11-28T00:47:45.769Z,26.30
2018-11-28T00:48:45.910Z,27.80
2018-11-28T00:49:45.749Z,26.70
2018-11-28T00:50:45.888Z,24.90
2018-11-28T00:51:45.759Z,25.80
2018-11-28T00:52:46.154Z,24.80
2018-11-28T00:53:45.753Z,25.60
2018-11-28T00:54:46.156Z,25.20
2018-11-28T00:55:48.463Z,24.90
2018-11-28T00:56:46.122Z,24.80
2018-11-28T00:57:46.106Z,26.00
2018-11-28T00:58:45.772Z,27.40
2018-11-28T00:59:45.762Z,26.20
2018-11-28T01:00:45.772Z,25.90
2018-11-28T01:01:45.759Z,27.00
2018-11-28T01:02:46.591Z,26.00
2018-11-28T01:03:45.747Z,30.20
2018-11-28T01:04:45.734Z,27.00
2018-11-28T01:05:45.748Z,24.70
2018-11-28T01:07:45.782Z,26.10
2018-11-28T01:08:45.746Z,27.60
2018-11-28T01:09:45.737Z,26.80
2018-11-28T01:10:45.782Z,26.20
2018-11-28T01:12:45.733Z,24.50
2018-11-28T01:13:45.767Z,24.00
2018-11-28T01:14:45.740Z,25.00
2018-11-28T01:15:45.733Z,25.30
2018-11-28T01:16:45.739Z,26.70
2018-11-28T01:17:45.761Z,25.20
2018-11-28T01:18:45.729Z,26.20
2018-11-28T01:19:45.734Z,26.70
2018-11-28T01:20:45.736Z,26.50
2018-11-28T01:21:45.731Z,26.60
2018-11-28T01:24:45.739Z,24.30
2018-11-28T01:25:45.739Z,25.00
2018-11-28T01:26:45.731Z,25.60
2018-11-28T01:27:45.737Z,25.60
2018-11-28T01:28:46.589Z,25.70
2018-11-28T01:29:45.730Z,25.40
2018-11-28T01:30:45.729Z,25.80
2018-11-28T01:31:45.747Z,25.70
2018-11-28T01:32:45.743Z,26.60
2018-11-28T01:33:45.767Z,28.00
2018-11-28T01:34:45.723Z,27.30
2018-11-28T01:35:45.731Z,26.70
2018-11-28T01:36:45.731Z,27.20
2018-11-28T01:37:45.738Z,28.20
2018-11-28T01:38:45.728Z,28.40
2018-11-28T01:39:45.729Z,26.80
2018-11-28T01:40:45.722Z,27.50
2018-11-28T01:41:45.810Z,29.30
2018-11-28T01:42:45.731Z,28.70
2018-11-28T01:43:45.722Z,27.90
2018-11-28T01:45:45.724Z,29.20
2018-11-28T01:46:45.729Z,28.30
2018-11-28T01:47:45.723Z,29.30
2018-11-28T01:48:45.716Z,29.90
2018-11-28T01:49:45.719Z,29.40
2018-11-28T01:50:45.724Z,28.70
2018-11-28T01:51:45.719Z,29.20
2018-11-28T01:52:45.715Z,28.70
2018-11-28T01:53:45.717Z,28.00
2018-11-28T01:54:45.715Z,29.40
2018-11-28T01:55:45.708Z,29.10
2018-11-28T01:56:45.719Z,29.10
2018-11-28T01:57:45.717Z,29.20
2018-11-28T01:58:45.717Z,28.80
2018-11-28T01:59:45.714Z,29.00
2018-11-28T02:00:45.716Z,27.90
2018-11-28T02:01:45.706Z,28.50
2018-11-28T02:02:45.719Z,28.40
2018-11-28T02:03:45.712Z,28.70
2018-11-28T02:04:45.712Z,29.00
2018-11-28T02:05:45.745Z,28.60
2018-11-28T02:06:45.706Z,29.10
2018-11-28T02:07:45.713Z,29.30
2018-11-28T02:08:45.713Z,28.40
2018-11-28T02:09:45.714Z,29.00
2018-11-28T02:11:45.709Z,26.30
2018-11-28T02:12:45.701Z,27.40
2018-11-28T02:13:45.706Z,28.20
2018-11-28T02:14:45.777Z,27.20
2018-11-28T02:15:45.708Z,26.60
2018-11-28T02:16:45.709Z,27.50
2018-11-28T02:17:45.711Z,27.90
2018-11-28T02:18:45.709Z,28.40
2018-11-28T02:19:45.711Z,27.40
2018-11-28T02:20:45.703Z,28.20
2018-11-28T02:21:45.714Z,27.40
2018-11-28T02:22:45.711Z,27.70
2018-11-28T02:23:45.701Z,28.00
2018-11-28T02:24:45.759Z,27.70
2018-11-28T02:25:45.698Z,26.60
2018-11-28T02:26:45.700Z,26.80
2018-11-28T02:27:45.697Z,26.50
2018-11-28T02:28:45.698Z,27.70
2018-11-28T02:29:45.698Z,26.90
2018-11-28T02:30:45.699Z,27.00
2018-11-28T02:31:45.701Z,27.40
2018-11-28T02:32:45.715Z,26.70
2018-11-28T02:33:45.702Z,24.90
2018-11-28T02:34:45.699Z,26.10
2018-11-28T02:35:45.703Z,26.40
2018-11-28T02:37:45.699Z,26.30
2018-11-28T02:38:45.714Z,27.50
2018-11-28T02:39:45.693Z,26.60
2018-11-28T02:40:45.690Z,27.00
2018-11-28T02:42:45.707Z,24.70
2018-11-28T02:43:45.694Z,24.40
2018-11-28T02:44:45.692Z,26.40
2018-11-28T02:45:45.694Z,26.70
2018-11-28T02:46:45.692Z,25.90
2018-11-28T02:47:45.684Z,25.50
2018-11-28T02:48:45.689Z,25.80
2018-11-28T02:49:45.693Z,25.90
2018-11-28T02:50:45.689Z,23.90
2018-11-28T02:52:45.687Z,26.00
2018-11-28T02:53:45.688Z,24.90
2018-11-28T02:54:45.695Z,24.20
2018-11-28T02:55:45.689Z,24.50
2018-11-28T02:56:45.695Z,25.00
2018-11-28T02:57:45.687Z,24.90
2018-11-28T02:58:45.689Z,24.80
2018-11-28T02:59:45.689Z,25.40
2018-11-28T03:00:45.685Z,24.10
2018-11-28T03:01:45.680Z,24.90
2018-11-28T03:02:45.691Z,24.50
2018-11-28T03:03:45.693Z,24.60
2018-11-28T03:04:45.686Z,25.00
2018-11-28T03:05:45.676Z,24.70
2018-11-28T03:06:45.691Z,24.90
2018-11-28T03:07:45.689Z,24.00
2018-11-28T03:08:45.685Z,24.90
2018-11-28T03:09:45.682Z,25.50
2018-11-28T03:10:45.682Z,24.30
2018-11-28T03:11:45.681Z,25.70
2018-11-28T03:12:45.685Z,24.60
2018-11-28T03:13:45.684Z,23.90
2018-11-28T03:14:45.690Z,25.70
2018-11-28T03:15:45.678Z,25.00
2018-11-28T03:16:45.678Z,24.60
2018-11-28T03:17:45.699Z,24.50
2018-11-28T03:18:45.680Z,24.80
2018-11-28T03:19:45.679Z,24.50
2018-11-28T03:20:45.686Z,24.00
2018-11-28T03:21:45.676Z,24.70
2018-11-28T03:22:45.673Z,23.80
2018-11-28T03:23:45.694Z,23.50
2018-11-28T03:24:45.672Z,25.50
2018-11-28T03:25:45.669Z,24.40
2018-11-28T03:26:45.677Z,25.30
2018-11-28T03:27:45.678Z,23.50
2018-11-28T03:28:45.669Z,23.70
2018-11-28T03:29:45.676Z,23.80
2018-11-28T03:30:45.671Z,24.70
2018-11-28T03:31:45.663Z,24.10
2018-11-28T03:32:45.677Z,25.10
2018-11-28T03:33:45.673Z,24.40
2018-11-28T03:34:45.758Z,25.20
2018-11-28T03:35:45.669Z,23.00
2018-11-28T03:36:45.671Z,25.50
2018-11-28T03:37:45.678Z,22.80
2018-11-28T03:38:45.684Z,25.00
2018-11-28T03:39:45.679Z,24.30
2018-11-28T03:40:45.669Z,24.80
2018-11-28T03:41:45.671Z,24.50
2018-11-28T03:42:45.677Z,24.90
2018-11-28T03:43:45.664Z,23.40
2018-11-28T03:44:45.667Z,24.30
2018-11-28T03:45:45.669Z,24.10
2018-11-28T03:46:45.668Z,24.20
2018-11-28T03:47:45.673Z,24.30
2018-11-28T03:48:45.675Z,24.40
2018-11-28T03:49:45.663Z,25.10
2018-11-28T03:50:45.660Z,24.70
2018-11-28T03:51:45.665Z,23.80
2018-11-28T03:52:45.663Z,23.90
2018-11-28T03:53:45.660Z,23.50
2018-11-28T03:54:45.662Z,23.70
2018-11-28T03:55:45.676Z,24.20
2018-11-28T03:56:45.665Z,21.70
2018-11-28T03:57:45.666Z,21.70
2018-11-28T03:58:45.662Z,23.30
2018-11-28T03:59:45.676Z,24.00
2018-11-28T04:00:45.669Z,23.90
2018-11-28T04:01:45.669Z,24.40
2018-11-28T04:02:45.670Z,23.20
2018-11-28T04:03:45.659Z,23.10
2018-11-28T04:04:45.660Z,23.60
2018-11-28T04:05:45.661Z,23.20
2018-11-28T04:06:45.661Z,24.40
2018-11-28T04:07:45.679Z,23.10
2018-11-28T04:08:45.659Z,22.50
2018-11-28T04:09:45.668Z,23.80
2018-11-28T04:10:45.656Z,23.00
2018-11-28T04:11:45.661Z,24.10
2018-11-28T04:12:45.655Z,24.20
2018-11-28T04:13:45.663Z,24.50
2018-11-28T04:14:45.654Z,23.60
2018-11-28T04:15:45.695Z,23.70
2018-11-28T04:16:45.682Z,24.90
2018-11-28T04:17:45.655Z,23.50
2018-11-28T04:18:45.662Z,23.00
2018-11-28T04:19:45.654Z,22.80
2018-11-28T04:20:45.653Z,24.00
2018-11-28T04:21:45.657Z,23.70
2018-11-28T04:22:45.669Z,23.10
2018-11-28T04:23:45.652Z,22.70
2018-11-28T04:24:45.650Z,24.20
2018-11-28T04:25:45.662Z,23.60
2018-11-28T04:26:45.654Z,24.30
2018-11-28T04:28:45.679Z,24.40
2018-11-28T04:29:45.670Z,24.00
2018-11-28T04:30:45.649Z,22.70
2018-11-28T04:31:45.643Z,24.00
2018-11-28T04:32:45.651Z,23.70
2018-11-28T04:33:45.643Z,24.90
2018-11-28T04:34:45.656Z,24.80
2018-11-28T04:35:45.650Z,24.10
2018-11-28T04:36:45.657Z,23.90
2018-11-28T04:37:45.648Z,24.40
2018-11-28T04:38:45.675Z,24.00
2018-11-28T04:39:45.646Z,23.90
2018-11-28T04:40:45.650Z,23.30
2018-11-28T04:41:45.649Z,23.40
2018-11-28T04:42:45.647Z,23.60
2018-11-28T04:43:45.654Z,23.20
2018-11-28T04:44:45.649Z,24.40
2018-11-28T04:45:45.642Z,23.20
2018-11-28T04:47:45.643Z,24.10
2018-11-28T04:48:45.647Z,23.50
2018-11-28T04:49:45.648Z,23.80
2018-11-28T04:50:45.660Z,23.30
2018-11-28T04:51:45.647Z,23.70
2018-11-28T04:52:45.650Z,22.80
2018-11-28T04:53:45.645Z,22.60
2018-11-28T04:54:45.645Z,23.50
2018-11-28T04:55:45.646Z,22.60
2018-11-28T04:56:45.670Z,22.50
2018-11-28T04:57:45.653Z,22.70
2018-11-28T04:58:45.636Z,23.20
2018-11-28T04:59:45.636Z,22.80
2018-11-28T05:00:45.661Z,23.80
2018-11-28T05:01:45.646Z,21.80
2018-11-28T05:02:45.636Z,22.10
2018-11-28T05:03:45.652Z,23.20
2018-11-28T05:04:45.644Z,23.10
2018-11-28T05:05:45.638Z,22.90
2018-11-28T05:06:45.636Z,23.50
2018-11-28T05:07:45.648Z,22.20
2018-11-28T05:08:45.636Z,22.80
2018-11-28T05:09:45.657Z,23.10
2018-11-28T05:10:45.646Z,22.50
2018-11-28T05:11:45.648Z,21.80
2018-11-28T05:12:45.650Z,24.00
2018-11-28T05:13:45.634Z,22.90
2018-11-28T05:14:45.636Z,22.70
2018-11-28T05:15:45.638Z,24.60
2018-11-28T05:16:45.638Z,23.60
2018-11-28T05:17:45.645Z,23.40
2018-11-28T05:18:45.637Z,23.50
2018-11-28T05:19:45.634Z,21.20
2018-11-28T05:20:45.625Z,23.90
2018-11-28T05:21:45.640Z,22.40
2018-11-28T05:22:45.639Z,23.90
2018-11-28T05:24:45.650Z,23.20
2018-11-28T05:25:45.642Z,21.30
2018-11-28T05:26:45.630Z,22.80
2018-11-28T05:27:45.636Z,22.40
2018-11-28T05:28:45.641Z,22.50
2018-11-28T05:29:45.644Z,22.60
2018-11-28T05:30:45.650Z,21.80
2018-11-28T05:31:45.653Z,22.10
2018-11-28T05:32:45.643Z,21.70
2018-11-28T05:33:45.636Z,22.40
2018-11-28T05:34:45.645Z,23.50
2018-11-28T05:35:45.639Z,22.20
2018-11-28T05:36:45.642Z,23.50
2018-11-28T05:37:45.639Z,21.70
2018-11-28T05:38:45.635Z,23.40
2018-11-28T05:39:45.651Z,22.80
2018-11-28T05:40:45.646Z,22.50
2018-11-28T05:41:45.640Z,23.20
2018-11-28T05:42:45.636Z,22.00
2018-11-28T05:43:45.636Z,22.90
2018-11-28T05:45:45.630Z,22.10
2018-11-28T05:46:45.636Z,23.60
2018-11-28T05:47:45.634Z,23.10
2018-11-28T05:48:45.631Z,22.10
2018-11-28T05:49:45.631Z,23.10
2018-11-28T05:50:45.646Z,22.40
2018-11-28T05:51:45.637Z,23.50
2018-11-28T05:52:45.643Z,23.90
2018-11-28T05:53:45.636Z,22.70
2018-11-28T05:54:45.633Z,22.40
2018-11-28T05:55:45.631Z,22.20
2018-11-28T05:56:45.625Z,22.20
2018-11-28T05:57:45.649Z,22.80
2018-11-28T05:58:45.641Z,23.90
2018-11-28T05:59:45.628Z,23.80
2018-11-28T06:00:45.696Z,23.00
2018-11-28T06:01:45.637Z,22.20
2018-11-28T06:02:45.633Z,22.20
2018-11-28T06:03:45.633Z,23.00
2018-11-28T06:04:45.645Z,21.40
2018-11-28T06:05:45.638Z,23.30
2018-11-28T06:06:45.646Z,23.30
2018-11-28T06:07:45.643Z,22.80
2018-11-28T06:08:45.628Z,22.70
2018-11-28T06:09:45.636Z,22.30
2018-11-28T06:10:45.630Z,21.80
2018-11-28T06:11:45.636Z,22.20
2018-11-28T06:12:45.629Z,21.40
2018-11-28T06:13:45.627Z,21.70
2018-11-28T06:14:45.627Z,22.60
2018-11-28T06:15:45.634Z,22.30
2018-11-28T06:16:45.638Z,21.90
2018-11-28T06:17:45.631Z,21.40
2018-11-28T06:18:45.632Z,22.60
2018-11-28T06:19:45.637Z,21.90
2018-11-28T06:20:45.631Z,22.30
2018-11-28T06:21:45.629Z,23.50
2018-11-28T06:22:45.633Z,22.60
2018-11-28T06:23:45.637Z,23.10
2018-11-28T06:24:45.639Z,21.40
2018-11-28T06:25:45.628Z,22.60
2018-11-28T06:26:45.632Z,22.50
2018-11-28T06:27:45.649Z,23.50
2018-11-28T06:28:45.637Z,22.80
2018-11-28T06:29:45.632Z,21.50
2018-11-28T06:30:45.629Z,21.80
2018-11-28T06:31:45.652Z,22.30
2018-11-28T06:32:50.988Z,21.30
2018-11-28T06:33:45.789Z,23.40
2018-11-28T06:34:45.644Z,22.20
2018-11-28T06:35:45.641Z,21.10
2018-11-28T06:36:45.675Z,21.60
2018-11-28T06:38:45.634Z,22.60
2018-11-28T06:39:45.626Z,21.30
2018-11-28T06:40:45.632Z,21.90
2018-11-28T06:41:45.639Z,21.50
2018-11-28T06:42:45.637Z,22.70
2018-11-28T06:44:45.633Z,22.10
2018-11-28T06:45:45.640Z,23.00
2018-11-28T06:46:45.699Z,22.70
2018-11-28T06:47:45.633Z,21.40
2018-11-28T06:48:45.632Z,22.30
2018-11-28T06:49:45.644Z,22.90
2018-11-28T06:50:45.633Z,22.00
2018-11-28T06:51:45.634Z,22.70
2018-11-28T06:52:45.639Z,22.30
2018-11-28T06:53:45.626Z,21.50
2018-11-28T06:54:45.632Z,22.80
2018-11-28T06:55:45.634Z,22.30
2018-11-28T06:56:45.632Z,22.30
2018-11-28T06:57:45.624Z,21.30
2018-11-28T06:58:45.633Z,21.60
2018-11-28T06:59:45.642Z,21.10
2018-11-28T07:00:45.638Z,22.20
2018-11-28T07:01:45.645Z,22.20
2018-11-28T07:02:45.623Z,22.70
2018-11-28T07:03:45.636Z,22.00
2018-11-28T07:04:45.632Z,22.40
2018-11-28T07:05:45.632Z,22.10
2018-11-28T07:06:45.632Z,21.10
2018-11-28T07:07:45.638Z,20.60
2018-11-28T07:08:45.644Z,21.10
2018-11-28T07:09:45.637Z,21.60
2018-11-28T07:10:45.632Z,21.00
2018-11-28T07:11:45.632Z,22.70
2018-11-28T07:12:45.641Z,22.00
2018-11-28T07:13:45.638Z,21.10
2018-11-28T07:15:45.653Z,22.40
2018-11-28T07:16:45.637Z,20.80
2018-11-28T07:17:45.638Z,21.70
2018-11-28T07:18:45.637Z,21.10
2018-11-28T07:19:45.641Z,21.60
2018-11-28T07:20:45.638Z,22.30
2018-11-28T07:21:45.644Z,22.20
2018-11-28T07:22:45.637Z,21.30
2018-11-28T07:23:45.649Z,21.40
2018-11-28T07:24:45.643Z,21.60
2018-11-28T07:25:45.643Z,21.50
2018-11-28T07:26:45.646Z,22.70
2018-11-28T07:27:45.696Z,22.30
2018-11-28T07:28:45.641Z,22.20
2018-11-28T07:29:45.651Z,20.50
2018-11-28T07:30:45.653Z,22.00
2018-11-28T07:31:45.650Z,22.40
2018-11-28T07:32:45.648Z,23.30
2018-11-28T07:33:45.654Z,22.60
2018-11-28T07:34:45.643Z,24.60
2018-11-28T07:35:45.646Z,24.50
2018-11-28T07:36:45.660Z,24.10
2018-11-28T07:37:45.647Z,24.00
2018-11-28T07:38:45.646Z,24.10
2018-11-28T07:39:45.653Z,23.90
2018-11-28T07:40:45.651Z,23.00
2018-11-28T07:41:45.651Z,23.60
2018-11-28T07:42:45.646Z,22.10
2018-11-28T07:43:45.645Z,21.60
2018-11-28T07:44:45.647Z,22.80
2018-11-28T07:45:45.679Z,21.80
2018-11-28T07:46:45.659Z,22.30
2018-11-28T07:47:45.646Z,23.30
2018-11-28T07:48:45.650Z,23.40
2018-11-28T07:49:45.655Z,22.80
2018-11-28T07:50:45.661Z,21.90
2018-11-28T07:51:45.664Z,22.70
2018-11-28T07:52:45.651Z,22.60
2018-11-28T07:53:45.655Z,22.50
2018-11-28T07:54:45.660Z,21.50
2018-11-28T07:55:45.659Z,22.50
2018-11-28T07:56:45.656Z,21.90
2018-11-28T07:57:45.659Z,22.40
2018-11-28T07:58:45.653Z,21.30
2018-11-28T07:59:45.659Z,22.80
2018-11-28T08:00:45.662Z,21.60
2018-11-28T08:01:45.664Z,21.50
2018-11-28T08:02:45.657Z,22.10
2018-11-28T08:04:45.686Z,21.00
2018-11-28T08:05:45.672Z,22.40
2018-11-28T08:06:45.663Z,21.10
2018-11-28T08:07:45.680Z,21.80
2018-11-28T08:08:45.666Z,21.70
2018-11-28T08:10:45.669Z,22.40
2018-11-28T08:11:45.669Z,22.40
2018-11-28T08:13:45.667Z,22.30
2018-11-28T08:14:45.671Z,21.60
2018-11-28T08:15:45.672Z,21.10
2018-11-28T08:16:45.671Z,20.50
2018-11-28T08:17:45.683Z,20.30
2018-11-28T08:18:45.681Z,22.00
2018-11-28T08:19:45.677Z,21.00
2018-11-28T08:20:45.684Z,21.00
2018-11-28T08:21:45.689Z,22.70
2018-11-28T08:22:45.680Z,20.80
2018-11-28T08:23:45.692Z,21.30
2018-11-28T08:24:45.687Z,19.50
2018-11-28T08:25:45.758Z,19.60
2018-11-28T08:26:45.688Z,21.40
2018-11-28T08:27:45.684Z,20.30
2018-11-28T08:28:45.687Z,20.40
2018-11-28T08:29:45.687Z,20.80
2018-11-28T08:30:45.687Z,21.60
2018-11-28T08:31:45.690Z,21.60
2018-11-28T08:32:45.686Z,20.70
2018-11-28T08:33:45.689Z,20.70
2018-11-28T08:34:45.700Z,21.70
2018-11-28T08:35:45.699Z,20.60
2018-11-28T08:36:45.710Z,22.40
2018-11-28T08:37:45.707Z,23.60
2018-11-28T08:38:45.705Z,22.40
2018-11-28T08:39:45.696Z,21.40
2018-11-28T08:40:45.730Z,22.20
2018-11-28T08:41:45.705Z,22.50
2018-11-28T08:42:45.693Z,22.10
2018-11-28T08:43:45.701Z,20.00
2018-11-28T08:44:45.700Z,20.80
2018-11-28T08:45:45.723Z,20.20
2018-11-28T08:46:45.711Z,19.60
2018-11-28T08:47:45.718Z,19.30
2018-11-28T08:48:45.718Z,19.80
2018-11-28T08:49:45.730Z,20.70
2018-11-28T08:50:45.717Z,21.10
2018-11-28T08:51:45.715Z,21.00
2018-11-28T08:53:45.722Z,20.60
2018-11-28T08:54:45.719Z,20.50
2018-11-28T08:55:45.718Z,20.10
2018-11-28T08:56:45.731Z,20.10
2018-11-28T08:57:45.719Z,20.60
2018-11-28T08:58:45.727Z,20.20
2018-11-28T08:59:45.744Z,19.70
2018-11-28T09:00:45.733Z,20.00
2018-11-28T09:01:45.735Z,19.50
2018-11-28T09:02:45.732Z,20.20
2018-11-28T09:03:45.735Z,20.30
2018-11-28T09:04:45.743Z,19.60
2018-11-28T09:05:45.741Z,19.00
2018-11-28T09:06:45.742Z,19.50
2018-11-28T09:07:45.735Z,20.90
2018-11-28T09:08:45.739Z,20.20
2018-11-28T09:09:45.777Z,18.70
2018-11-28T09:11:45.764Z,20.20
2018-11-28T09:12:45.756Z,19.40
2018-11-28T09:13:45.747Z,21.00
2018-11-28T09:14:45.759Z,20.40
2018-11-28T09:15:45.777Z,20.30
2018-11-28T09:16:45.749Z,19.80
2018-11-28T09:17:45.759Z,20.30
2018-11-28T09:18:45.772Z,20.10
2018-11-28T09:19:45.763Z,19.40
2018-11-28T09:20:45.765Z,19.90
2018-11-28T09:21:45.767Z,19.90
2018-11-28T09:22:45.769Z,20.40
2018-11-28T09:23:45.776Z,21.00
2018-11-28T09:24:45.777Z,20.20
2018-11-28T09:25:45.777Z,19.70
2018-11-28T09:26:45.805Z,21.10
2018-11-28T09:27:45.774Z,20.90
2018-11-28T09:28:45.785Z,21.80
2018-11-28T09:29:45.790Z,20.80
2018-11-28T09:30:45.790Z,21.80
2018-11-28T09:31:45.795Z,20.10
2018-11-28T09:32:45.804Z,21.80
2018-11-28T09:33:45.804Z,19.60
2018-11-28T09:34:45.814Z,20.30
2018-11-28T09:35:45.810Z,19.60
2018-11-28T09:36:45.818Z,19.80
2018-11-28T09:37:46.175Z,20.80
2018-11-28T09:38:45.826Z,20.30
2018-11-28T09:39:45.813Z,20.40
2018-11-28T09:40:45.833Z,20.50
2018-11-28T09:41:45.827Z,21.00
2018-11-28T09:42:45.828Z,20.80
2018-11-28T09:43:45.826Z,19.90
2018-11-28T09:45:45.833Z,20.90
2018-11-28T09:46:45.843Z,21.90
2018-11-28T09:47:45.838Z,22.30
2018-11-28T09:48:45.853Z,20.70
2018-11-28T09:49:45.856Z,21.00
2018-11-28T09:50:46.361Z,20.30
2018-11-28T09:51:46.283Z,19.00
2018-11-28T09:52:46.331Z,19.30
2018-11-28T09:53:45.874Z,19.10
2018-11-28T09:54:45.860Z,19.00
2018-11-28T09:55:45.867Z,18.40
2018-11-28T09:56:45.870Z,18.40
2018-11-28T09:57:45.877Z,18.00
2018-11-28T10:00:45.892Z,17.70
2018-11-28T10:01:45.898Z,17.60
2018-11-28T10:02:45.896Z,18.30
2018-11-28T10:04:45.906Z,17.60
2018-11-28T10:05:47.225Z,17.30
2018-11-28T10:06:45.912Z,17.60
2018-11-28T10:07:45.917Z,17.70
2018-11-28T10:08:45.920Z,17.80
2018-11-28T10:09:45.924Z,17.60
2018-11-28T10:10:45.927Z,16.80
2018-11-28T10:11:45.942Z,18.00
2018-11-28T10:12:45.941Z,16.80
2018-11-28T10:13:45.940Z,17.30
2018-11-28T10:14:45.955Z,16.80
2018-11-28T10:15:45.945Z,18.20
2018-11-28T10:16:46.391Z,17.50
2018-11-28T10:17:46.070Z,16.40
2018-11-28T10:19:45.960Z,16.10
2018-11-28T10:20:45.975Z,17.00
2018-11-28T10:21:45.986Z,15.90
2018-11-28T10:22:45.974Z,16.60
2018-11-28T10:23:45.966Z,15.80
2018-11-28T10:24:45.997Z,16.40
2018-11-28T10:25:45.982Z,15.70
2018-11-28T10:26:46.115Z,15.90
2018-11-28T10:27:45.989Z,15.80
2018-11-28T10:28:46.001Z,15.70
2018-11-28T10:29:46.016Z,15.70
2018-11-28T10:30:46.003Z,15.70
2018-11-28T10:31:46.010Z,15.40
2018-11-28T10:32:46.008Z,15.10
2018-11-28T10:33:46.021Z,16.10
2018-11-28T10:34:46.027Z,16.00
2018-11-28T10:35:46.630Z,15.40
2018-11-28T10:36:46.047Z,14.80
2018-11-28T10:37:46.046Z,15.60
2018-11-28T10:38:46.053Z,14.40
2018-11-28T10:39:46.045Z,14.70
2018-11-28T10:40:46.049Z,14.90
2018-11-28T10:41:46.050Z,14.70
2018-11-28T10:42:46.071Z,14.20
2018-11-28T10:43:46.063Z,15.80
2018-11-28T10:44:46.078Z,15.90
2018-11-28T10:45:46.079Z,14.60
2018-11-28T10:46:46.095Z,14.60
2018-11-28T10:47:46.087Z,14.90
2018-11-28T10:48:46.083Z,14.90
2018-11-28T10:49:46.087Z,14.30
2018-11-28T10:50:46.117Z,15.20
2018-11-28T10:51:50.267Z,13.70
2018-11-28T10:52:46.108Z,13.30
2018-11-28T10:53:46.143Z,14.00
2018-11-28T10:54:46.116Z,14.20
2018-11-28T10:55:46.123Z,14.30
2018-11-28T10:56:46.124Z,14.40
2018-11-28T10:57:46.130Z,14.40
2018-11-28T10:58:46.147Z,14.90
2018-11-28T10:59:46.132Z,14.40
2018-11-28T11:00:46.138Z,13.90
2018-11-28T11:01:46.136Z,15.10
2018-11-28T11:02:46.174Z,14.30
2018-11-28T11:03:46.146Z,14.90
2018-11-28T11:04:46.152Z,14.70
2018-11-28T11:05:46.180Z,14.80
2018-11-28T11:06:46.169Z,15.10
2018-11-28T11:07:46.165Z,15.10
2018-11-28T11:08:46.174Z,13.60
2018-11-28T11:09:46.209Z,13.60
2018-11-28T11:10:46.186Z,14.00
2018-11-28T11:11:46.183Z,14.80
2018-11-28T11:12:46.210Z,14.80
2018-11-28T11:13:46.201Z,14.50
2018-11-28T11:15:46.222Z,14.90
2018-11-28T11:16:46.234Z,14.60
2018-11-28T11:17:46.203Z,14.90
2018-11-28T11:18:46.217Z,13.90
2018-11-28T11:19:46.221Z,14.50
2018-11-28T11:20:46.247Z,14.20
2018-11-28T11:21:46.262Z,14.60
2018-11-28T11:22:46.234Z,15.40
2018-11-28T11:23:46.251Z,15.00
2018-11-28T11:24:46.262Z,13.40
2018-11-28T11:25:46.279Z,15.00
2018-11-28T11:26:46.260Z,16.30
2018-11-28T11:27:46.266Z,16.10
2018-11-28T11:28:46.258Z,13.40
2018-11-28T11:29:46.276Z,13.90
2018-11-28T11:30:46.294Z,14.70
2018-11-28T11:31:46.283Z,15.30
2018-11-28T11:32:46.303Z,14.40
2018-11-28T11:33:46.289Z,14.60
2018-11-28T11:34:46.291Z,13.90
2018-11-28T11:35:46.293Z,15.20
2018-11-28T11:36:46.301Z,14.80
2018-11-28T11:37:46.316Z,13.40
2018-11-28T11:38:46.319Z,13.60
2018-11-28T11:39:46.326Z,13.90
2018-11-28T11:40:46.325Z,14.90
2018-11-28T11:41:46.323Z,14.90
2018-11-28T11:42:46.332Z,15.00
2018-11-28T11:43:46.339Z,14.20
2018-11-28T11:44:46.347Z,14.40
2018-11-28T11:45:46.345Z,14.50
2018-11-28T11:46:46.344Z,14.10
2018-11-28T11:47:46.358Z,14.90
2018-11-28T11:48:46.359Z,13.60
2018-11-28T11:49:46.376Z,14.90
2018-11-28T11:50:46.379Z,14.40
2018-11-28T11:51:46.377Z,14.10
2018-11-28T11:53:46.397Z,14.60
2018-11-28T11:54:46.392Z,14.00
2018-11-28T11:55:46.396Z,14.10
2018-11-28T11:57:46.406Z,13.30
2018-11-28T11:58:46.418Z,14.40
2018-11-28T11:59:46.429Z,15.00
2018-11-28T12:00:48.450Z,14.80
2018-11-28T12:01:46.433Z,14.10
2018-11-28T12:02:46.437Z,13.80
2018-11-28T12:03:46.450Z,14.50
2018-11-28T12:04:46.450Z,13.80
2018-11-28T12:05:46.470Z,14.10
2018-11-28T12:06:46.554Z,13.40
2018-11-28T12:07:46.472Z,14.40
2018-11-28T12:08:46.467Z,12.80
2018-11-28T12:09:46.479Z,14.40
2018-11-28T12:10:46.486Z,13.10
2018-11-28T12:11:46.502Z,14.00
2018-11-28T12:12:51.525Z,12.90
2018-11-28T12:13:46.497Z,14.30
2018-11-28T12:14:46.512Z,13.60
2018-11-28T12:15:46.512Z,13.80
2018-11-28T12:16:46.581Z,13.20
2018-11-28T12:17:46.527Z,13.30
2018-11-28T12:18:46.523Z,12.80
2018-11-28T12:19:46.533Z,13.90
2018-11-28T12:20:46.564Z,12.70
2018-11-28T12:21:46.540Z,13.90
2018-11-28T12:22:46.552Z,14.20
2018-11-28T12:23:46.551Z,13.30
2018-11-28T12:24:46.569Z,13.90
2018-11-28T12:25:46.568Z,14.00
2018-11-28T12:26:46.572Z,13.60
2018-11-28T12:27:46.604Z,14.00
2018-11-28T12:28:46.595Z,13.30
2018-11-28T12:29:46.583Z,13.00
2018-11-28T12:30:46.585Z,13.60
2018-11-28T12:31:46.594Z,13.60
2018-11-28T12:32:46.595Z,13.50
2018-11-28T12:33:46.603Z,13.90
2018-11-28T12:34:50.394Z,14.30
2018-11-28T12:35:46.611Z,13.40
2018-11-28T12:36:46.618Z,12.80
2018-11-28T12:37:46.636Z,13.90
2018-11-28T12:38:46.639Z,15.30
2018-11-28T12:41:46.667Z,13.70
2018-11-28T12:43:46.673Z,12.50
2018-11-28T12:46:46.679Z,13.80
2018-11-28T12:47:46.676Z,12.60
2018-11-28T12:48:46.678Z,13.40
2018-11-28T12:49:46.683Z,13.80
2018-11-28T12:50:46.700Z,13.10
2018-11-28T12:51:46.691Z,14.10
2018-11-28T12:52:46.706Z,14.40
2018-11-28T12:53:46.702Z,13.80
2018-11-28T12:54:46.725Z,14.50
2018-11-28T12:55:46.717Z,14.10
2018-11-28T12:56:46.900Z,13.60
2018-11-28T12:58:46.729Z,14.10
2018-11-28T12:59:46.736Z,13.30
2018-11-28T13:00:46.752Z,12.90
2018-11-28T13:02:46.749Z,13.60
2018-11-28T13:03:46.744Z,12.80
2018-11-28T13:04:46.755Z,14.60
2018-11-28T13:05:46.786Z,11.90
2018-11-28T13:06:46.770Z,13.00
2018-11-28T13:07:46.774Z,12.70
2018-11-28T13:08:46.782Z,13.00
2018-11-28T13:09:46.785Z,13.00
2018-11-28T13:10:46.784Z,11.90
2018-11-28T13:11:46.793Z,12.70
2018-11-28T13:12:46.797Z,12.60
2018-11-28T13:13:46.805Z,11.40
2018-11-28T13:14:46.804Z,12.40
2018-11-28T13:15:46.806Z,12.30
2018-11-28T13:16:46.823Z,12.60
2018-11-28T13:17:46.818Z,11.40
2018-11-28T13:18:46.826Z,12.70
2018-11-28T13:19:46.838Z,12.40
2018-11-28T13:20:46.902Z,12.20
2018-11-28T13:21:46.838Z,10.90
2018-11-28T13:22:46.855Z,12.20
2018-11-28T13:23:46.850Z,12.40
2018-11-28T13:24:46.857Z,11.10
2018-11-28T13:26:46.864Z,12.30
2018-11-28T13:27:46.879Z,12.40
2018-11-28T13:28:46.863Z,12.00
2018-11-28T13:29:46.879Z,11.90
2018-11-28T13:30:46.916Z,11.80
2018-11-28T13:31:46.886Z,11.60
2018-11-28T13:32:46.920Z,11.80
2018-11-28T13:33:46.891Z,11.30
2018-11-28T13:34:46.909Z,11.60